sensor_id;sensor_type;location;lat;lon;timestamp;P1;durP1;ratioP1;P2;durP2;ratioP2
14241;SDS011;7205;50.864;12.766;2023-05-07T00:02:19;9.13;;;8.17;;
14241;SDS011;7205;50.864;12.766;2023-05-07T00:04:47;8.73;;;7.80;;
14241;SDS011;7205;50.864;12.766;2023-05-07T00:07:15;11.77;;;7.40;;
14241;SDS011;7205;50.864;12.766;2023-05-07T00:09:42;8.10;;;7.37;;
14241;SDS011;7205;50.864;12.766;2023-05-07T00:12:09;7.80;;;7.00;;
14241;SDS011;7205;50.864;12.766;2023-05-07T00:14:36;7.40;;;6.60;;
14241;SDS011;7205;50.864;12.766;2023-05-07T00:17:02;6.90;;;6.30;;
14241;SDS011;7205;50.864;12.766;2023-05-07T00:19:31;7.27;;;6.60;;
14241;SDS011;7205;50.864;12.766;2023-05-07T00:21:57;7.07;;;6.37;;
14241;SDS011;7205;50.864;12.766;2023-05-07T00:24:24;7.40;;;6.63;;
14241;SDS011;7205;50.864;12.766;2023-05-07T00:26:51;7.30;;;6.60;;
14241;SDS011;7205;50.864;12.766;2023-05-07T00:29:18;7.83;;;7.13;;
14241;SDS011;7205;50.864;12.766;2023-05-07T00:31:45;8.33;;;7.53;;
14241;SDS011;7205;50.864;12.766;2023-05-07T00:34:12;9.03;;;7.97;;
14241;SDS011;7205;50.864;12.766;2023-05-07T00:36:41;9.77;;;8.67;;
14241;SDS011;7205;50.864;12.766;2023-05-07T00:39:07;10.03;;;8.90;;
14241;SDS011;7205;50.864;12.766;2023-05-07T00:41:34;9.10;;;8.30;;
14241;SDS011;7205;50.864;12.766;2023-05-07T00:44:01;10.37;;;9.37;;
14241;SDS011;7205;50.864;12.766;2023-05-07T00:46:28;10.50;;;9.50;;
14241;SDS011;7205;50.864;12.766;2023-05-07T00:48:57;10.03;;;8.93;;
14241;SDS011;7205;50.864;12.766;2023-05-07T00:51:24;9.83;;;8.90;;
14241;SDS011;7205;50.864;12.766;2023-05-07T00:53:54;10.17;;;8.80;;
14241;SDS011;7205;50.864;12.766;2023-05-07T00:56:21;10.03;;;8.57;;
14241;SDS011;7205;50.864;12.766;2023-05-07T00:58:48;10.00;;;9.00;;
14241;SDS011;7205;50.864;12.766;2023-05-07T01:01:15;10.77;;;8.83;;
14241;SDS011;7205;50.864;12.766;2023-05-07T01:03:42;9.77;;;8.87;;
14241;SDS011;7205;50.864;12.766;2023-05-07T01:06:09;10.50;;;9.40;;
14241;SDS011;7205;50.864;12.766;2023-05-07T01:08:37;10.30;;;9.30;;
14241;SDS011;7205;50.864;12.766;2023-05-07T01:11:07;10.73;;;9.63;;
14241;SDS011;7205;50.864;12.766;2023-05-07T01:13:35;10.73;;;9.57;;
14241;SDS011;7205;50.864;12.766;2023-05-07T01:16:03;10.27;;;9.17;;
14241;SDS011;7205;50.864;12.766;2023-05-07T01:18:31;10.07;;;9.07;;
14241;SDS011;7205;50.864;12.766;2023-05-07T01:20:58;10.83;;;9.63;;
14241;SDS011;7205;50.864;12.766;2023-05-07T01:23:27;9.53;;;8.63;;
14241;SDS011;7205;50.864;12.766;2023-05-07T01:25:56;12.57;;;9.37;;
14241;SDS011;7205;50.864;12.766;2023-05-07T01:28:25;10.37;;;9.17;;
14241;SDS011;7205;50.864;12.766;2023-05-07T01:30:57;13.33;;;10.30;;
14241;SDS011;7205;50.864;12.766;2023-05-07T01:33:28;12.97;;;11.50;;
14241;SDS011;7205;50.864;12.766;2023-05-07T01:35:58;12.90;;;11.60;;
14241;SDS011;7205;50.864;12.766;2023-05-07T01:38:29;14.17;;;12.53;;
14241;SDS011;7205;50.864;12.766;2023-05-07T01:40:56;14.70;;;13.03;;
14241;SDS011;7205;50.864;12.766;2023-05-07T01:43:24;16.07;;;12.80;;
14241;SDS011;7205;50.864;12.766;2023-05-07T01:45:51;17.20;;;13.63;;
14241;SDS011;7205;50.864;12.766;2023-05-07T01:48:19;14.17;;;12.67;;
14241;SDS011;7205;50.864;12.766;2023-05-07T01:50:46;14.20;;;12.37;;
14241;SDS011;7205;50.864;12.766;2023-05-07T01:53:14;16.80;;;13.90;;
14241;SDS011;7205;50.864;12.766;2023-05-07T01:55:42;15.97;;;13.60;;
14241;SDS011;7205;50.864;12.766;2023-05-07T01:58:10;14.63;;;13.07;;
14241;SDS011;7205;50.864;12.766;2023-05-07T02:00:37;15.33;;;13.67;;
14241;SDS011;7205;50.864;12.766;2023-05-07T02:03:06;15.17;;;13.57;;
14241;SDS011;7205;50.864;12.766;2023-05-07T02:05:41;16.53;;;13.40;;
14241;SDS011;7205;50.864;12.766;2023-05-07T02:08:28;16.00;;;13.93;;
14241;SDS011;7205;50.864;12.766;2023-05-07T02:10:57;15.80;;;14.00;;
14241;SDS011;7205;50.864;12.766;2023-05-07T02:13:25;18.83;;;14.60;;
14241;SDS011;7205;50.864;12.766;2023-05-07T02:15:53;18.60;;;14.27;;
14241;SDS011;7205;50.864;12.766;2023-05-07T02:18:21;16.13;;;14.43;;
14241;SDS011;7205;50.864;12.766;2023-05-07T02:20:48;18.83;;;14.67;;
14241;SDS011;7205;50.864;12.766;2023-05-07T02:23:15;18.20;;;14.20;;
14241;SDS011;7205;50.864;12.766;2023-05-07T02:25:42;15.23;;;13.63;;
14241;SDS011;7205;50.864;12.766;2023-05-07T02:28:10;16.87;;;14.50;;
14241;SDS011;7205;50.864;12.766;2023-05-07T02:30:43;17.90;;;14.80;;
14241;SDS011;7205;50.864;12.766;2023-05-07T02:33:10;16.67;;;13.73;;
14241;SDS011;7205;50.864;12.766;2023-05-07T02:35:39;16.83;;;13.63;;
14241;SDS011;7205;50.864;12.766;2023-05-07T02:38:07;16.83;;;13.73;;
14241;SDS011;7205;50.864;12.766;2023-05-07T02:40:36;18.10;;;13.40;;
14241;SDS011;7205;50.864;12.766;2023-05-07T02:43:05;15.93;;;13.63;;
14241;SDS011;7205;50.864;12.766;2023-05-07T02:45:33;16.40;;;14.37;;
14241;SDS011;7205;50.864;12.766;2023-05-07T02:48:01;19.17;;;14.97;;
14241;SDS011;7205;50.864;12.766;2023-05-07T02:50:28;17.23;;;14.93;;
14241;SDS011;7205;50.864;12.766;2023-05-07T02:52:55;15.53;;;13.63;;
14241;SDS011;7205;50.864;12.766;2023-05-07T02:55:22;16.90;;;14.23;;
14241;SDS011;7205;50.864;12.766;2023-05-07T02:57:48;19.17;;;15.27;;
14241;SDS011;7205;50.864;12.766;2023-05-07T03:00:16;18.43;;;14.53;;
14241;SDS011;7205;50.864;12.766;2023-05-07T03:02:54;17.77;;;14.33;;
14241;SDS011;7205;50.864;12.766;2023-05-07T03:05:21;16.63;;;14.07;;
14241;SDS011;7205;50.864;12.766;2023-05-07T03:07:48;18.13;;;14.07;;
14241;SDS011;7205;50.864;12.766;2023-05-07T03:10:15;17.87;;;14.53;;
14241;SDS011;7205;50.864;12.766;2023-05-07T03:12:42;15.53;;;13.57;;
14241;SDS011;7205;50.864;12.766;2023-05-07T03:15:12;17.07;;;14.47;;
14241;SDS011;7205;50.864;12.766;2023-05-07T03:17:39;16.87;;;14.60;;
14241;SDS011;7205;50.864;12.766;2023-05-07T03:20:08;17.27;;;14.50;;
14241;SDS011;7205;50.864;12.766;2023-05-07T03:22:36;16.73;;;14.73;;
14241;SDS011;7205;50.864;12.766;2023-05-07T03:25:03;19.13;;;15.33;;
14241;SDS011;7205;50.864;12.766;2023-05-07T03:27:30;18.83;;;15.13;;
14241;SDS011;7205;50.864;12.766;2023-05-07T03:29:59;20.37;;;15.97;;
14241;SDS011;7205;50.864;12.766;2023-05-07T03:32:26;18.20;;;14.97;;
14241;SDS011;7205;50.864;12.766;2023-05-07T03:34:53;19.20;;;14.87;;
14241;SDS011;7205;50.864;12.766;2023-05-07T03:37:22;19.97;;;15.00;;
14241;SDS011;7205;50.864;12.766;2023-05-07T03:39:49;17.40;;;14.37;;
14241;SDS011;7205;50.864;12.766;2023-05-07T03:42:17;17.70;;;14.27;;
14241;SDS011;7205;50.864;12.766;2023-05-07T03:44:44;17.23;;;14.63;;
14241;SDS011;7205;50.864;12.766;2023-05-07T03:47:11;17.70;;;14.47;;
14241;SDS011;7205;50.864;12.766;2023-05-07T03:49:38;16.87;;;14.13;;
14241;SDS011;7205;50.864;12.766;2023-05-07T03:52:05;18.03;;;14.80;;
14241;SDS011;7205;50.864;12.766;2023-05-07T03:54:34;19.50;;;14.27;;
14241;SDS011;7205;50.864;12.766;2023-05-07T03:57:01;17.50;;;14.10;;
14241;SDS011;7205;50.864;12.766;2023-05-07T03:59:28;18.00;;;13.53;;
14241;SDS011;7205;50.864;12.766;2023-05-07T04:01:55;17.67;;;13.83;;
14241;SDS011;7205;50.864;12.766;2023-05-07T04:04:24;15.90;;;12.97;;
14241;SDS011;7205;50.864;12.766;2023-05-07T04:06:51;15.40;;;13.03;;
14241;SDS011;7205;50.864;12.766;2023-05-07T04:09:18;16.03;;;12.30;;
14241;SDS011;7205;50.864;12.766;2023-05-07T04:11:48;14.57;;;12.83;;
14241;SDS011;7205;50.864;12.766;2023-05-07T04:14:15;14.83;;;12.87;;
14241;SDS011;7205;50.864;12.766;2023-05-07T04:16:42;14.83;;;12.70;;
14241;SDS011;7205;50.864;12.766;2023-05-07T04:19:08;15.97;;;12.57;;
14241;SDS011;7205;50.864;12.766;2023-05-07T04:21:37;15.27;;;11.90;;
14241;SDS011;7205;50.864;12.766;2023-05-07T04:24:04;15.03;;;12.37;;
14241;SDS011;7205;50.864;12.766;2023-05-07T04:26:31;15.23;;;11.93;;
14241;SDS011;7205;50.864;12.766;2023-05-07T04:29:00;12.97;;;11.57;;
14241;SDS011;7205;50.864;12.766;2023-05-07T04:31:31;15.73;;;11.97;;
14241;SDS011;7205;50.864;12.766;2023-05-07T04:33:58;13.43;;;12.00;;
14241;SDS011;7205;50.864;12.766;2023-05-07T04:36:26;13.37;;;11.87;;
14241;SDS011;7205;50.864;12.766;2023-05-07T04:39:02;13.17;;;11.80;;
14241;SDS011;7205;50.864;12.766;2023-05-07T04:41:29;12.80;;;11.50;;
14241;SDS011;7205;50.864;12.766;2023-05-07T04:43:56;11.30;;;10.10;;
14241;SDS011;7205;50.864;12.766;2023-05-07T04:46:26;11.60;;;10.50;;
14241;SDS011;7205;50.864;12.766;2023-05-07T04:48:56;12.03;;;10.77;;
14241;SDS011;7205;50.864;12.766;2023-05-07T04:51:23;11.23;;;10.10;;
14241;SDS011;7205;50.864;12.766;2023-05-07T04:53:50;14.37;;;11.07;;
14241;SDS011;7205;50.864;12.766;2023-05-07T04:56:17;12.20;;;10.87;;
14241;SDS011;7205;50.864;12.766;2023-05-07T04:58:45;11.77;;;10.67;;
14241;SDS011;7205;50.864;12.766;2023-05-07T05:01:14;12.27;;;11.07;;
14241;SDS011;7205;50.864;12.766;2023-05-07T05:03:42;12.50;;;11.30;;
14241;SDS011;7205;50.864;12.766;2023-05-07T05:06:09;11.77;;;10.67;;
14241;SDS011;7205;50.864;12.766;2023-05-07T05:08:36;11.97;;;10.63;;
14241;SDS011;7205;50.864;12.766;2023-05-07T05:11:03;13.30;;;12.00;;
14241;SDS011;7205;50.864;12.766;2023-05-07T05:13:33;13.83;;;11.80;;
14241;SDS011;7205;50.864;12.766;2023-05-07T05:16:04;14.37;;;12.80;;
14241;SDS011;7205;50.864;12.766;2023-05-07T05:18:32;17.37;;;13.17;;
14241;SDS011;7205;50.864;12.766;2023-05-07T05:21:00;15.47;;;13.97;;
14241;SDS011;7205;50.864;12.766;2023-05-07T05:23:28;17.20;;;14.73;;
14241;SDS011;7205;50.864;12.766;2023-05-07T05:25:55;19.20;;;15.53;;
14241;SDS011;7205;50.864;12.766;2023-05-07T05:28:25;15.80;;;14.20;;
14241;SDS011;7205;50.864;12.766;2023-05-07T05:30:52;17.27;;;15.27;;
14241;SDS011;7205;50.864;12.766;2023-05-07T05:33:20;16.53;;;14.77;;
14241;SDS011;7205;50.864;12.766;2023-05-07T05:35:47;18.03;;;16.10;;
14241;SDS011;7205;50.864;12.766;2023-05-07T05:38:17;19.43;;;16.80;;
14241;SDS011;7205;50.864;12.766;2023-05-07T05:40:44;19.57;;;16.20;;
14241;SDS011;7205;50.864;12.766;2023-05-07T05:43:11;18.00;;;15.80;;
14241;SDS011;7205;50.864;12.766;2023-05-07T05:45:37;17.37;;;15.33;;
14241;SDS011;7205;50.864;12.766;2023-05-07T05:48:05;18.33;;;15.63;;
14241;SDS011;7205;50.864;12.766;2023-05-07T05:50:33;16.93;;;15.13;;
14241;SDS011;7205;50.864;12.766;2023-05-07T05:53:01;18.57;;;15.97;;
14241;SDS011;7205;50.864;12.766;2023-05-07T05:55:29;17.90;;;16.00;;
14241;SDS011;7205;50.864;12.766;2023-05-07T05:57:57;17.43;;;15.63;;
14241;SDS011;7205;50.864;12.766;2023-05-07T06:00:25;16.67;;;14.80;;
14241;SDS011;7205;50.864;12.766;2023-05-07T06:03:00;16.40;;;14.67;;
14241;SDS011;7205;50.864;12.766;2023-05-07T06:05:27;16.17;;;14.53;;
14241;SDS011;7205;50.864;12.766;2023-05-07T06:07:56;16.13;;;14.43;;
14241;SDS011;7205;50.864;12.766;2023-05-07T06:10:23;15.93;;;14.33;;
14241;SDS011;7205;50.864;12.766;2023-05-07T06:12:52;15.73;;;14.13;;
14241;SDS011;7205;50.864;12.766;2023-05-07T06:15:20;15.07;;;13.47;;
14241;SDS011;7205;50.864;12.766;2023-05-07T06:17:47;15.60;;;13.90;;
14241;SDS011;7205;50.864;12.766;2023-05-07T06:20:14;15.93;;;14.20;;
14241;SDS011;7205;50.864;12.766;2023-05-07T06:22:41;15.27;;;13.77;;
14241;SDS011;7205;50.864;12.766;2023-05-07T06:25:10;15.33;;;13.73;;
14241;SDS011;7205;50.864;12.766;2023-05-07T06:27:37;20.00;;;13.47;;
14241;SDS011;7205;50.864;12.766;2023-05-07T06:30:07;16.27;;;13.60;;
14241;SDS011;7205;50.864;12.766;2023-05-07T06:32:34;13.73;;;12.40;;
14241;SDS011;7205;50.864;12.766;2023-05-07T06:35:01;13.80;;;12.50;;
14241;SDS011;7205;50.864;12.766;2023-05-07T06:37:28;13.33;;;11.87;;
14241;SDS011;7205;50.864;12.766;2023-05-07T06:39:59;13.20;;;11.90;;
14241;SDS011;7205;50.864;12.766;2023-05-07T06:42:27;12.73;;;11.53;;
14241;SDS011;7205;50.864;12.766;2023-05-07T06:44:58;12.93;;;11.70;;
14241;SDS011;7205;50.864;12.766;2023-05-07T06:47:29;13.10;;;11.80;;
14241;SDS011;7205;50.864;12.766;2023-05-07T06:49:56;13.63;;;12.23;;
14241;SDS011;7205;50.864;12.766;2023-05-07T06:52:26;12.97;;;11.57;;
14241;SDS011;7205;50.864;12.766;2023-05-07T06:54:54;13.00;;;11.80;;
14241;SDS011;7205;50.864;12.766;2023-05-07T06:57:24;11.80;;;10.60;;
14241;SDS011;7205;50.864;12.766;2023-05-07T06:59:51;12.20;;;11.07;;
14241;SDS011;7205;50.864;12.766;2023-05-07T07:02:19;11.50;;;10.30;;
14241;SDS011;7205;50.864;12.766;2023-05-07T07:04:49;11.77;;;10.57;;
14241;SDS011;7205;50.864;12.766;2023-05-07T07:07:16;11.63;;;10.63;;
14241;SDS011;7205;50.864;12.766;2023-05-07T07:09:45;10.77;;;9.80;;
14241;SDS011;7205;50.864;12.766;2023-05-07T07:12:15;11.40;;;10.30;;
14241;SDS011;7205;50.864;12.766;2023-05-07T07:14:42;12.90;;;11.60;;
14241;SDS011;7205;50.864;12.766;2023-05-07T07:17:09;12.00;;;10.80;;
14241;SDS011;7205;50.864;12.766;2023-05-07T07:19:36;12.70;;;11.50;;
14241;SDS011;7205;50.864;12.766;2023-05-07T07:22:05;12.43;;;11.13;;
14241;SDS011;7205;50.864;12.766;2023-05-07T07:24:32;12.60;;;11.40;;
14241;SDS011;7205;50.864;12.766;2023-05-07T07:27:02;12.73;;;11.40;;
14241;SDS011;7205;50.864;12.766;2023-05-07T07:29:31;12.23;;;10.97;;
14241;SDS011;7205;50.864;12.766;2023-05-07T07:31:58;10.97;;;9.87;;
14241;SDS011;7205;50.864;12.766;2023-05-07T07:34:25;11.77;;;10.57;;
14241;SDS011;7205;50.864;12.766;2023-05-07T07:36:52;10.80;;;9.80;;
14241;SDS011;7205;50.864;12.766;2023-05-07T07:39:21;10.67;;;9.77;;
14241;SDS011;7205;50.864;12.766;2023-05-07T07:41:50;10.70;;;9.77;;
14241;SDS011;7205;50.864;12.766;2023-05-07T07:44:19;10.73;;;9.70;;
14241;SDS011;7205;50.864;12.766;2023-05-07T07:46:50;10.10;;;9.10;;
14241;SDS011;7205;50.864;12.766;2023-05-07T07:49:18;10.90;;;9.83;;
14241;SDS011;7205;50.864;12.766;2023-05-07T07:51:46;9.90;;;9.00;;
14241;SDS011;7205;50.864;12.766;2023-05-07T07:54:13;10.43;;;9.53;;
14241;SDS011;7205;50.864;12.766;2023-05-07T07:56:42;10.83;;;9.73;;
14241;SDS011;7205;50.864;12.766;2023-05-07T07:59:10;9.33;;;8.57;;
14241;SDS011;7205;50.864;12.766;2023-05-07T08:01:40;9.00;;;8.20;;
14241;SDS011;7205;50.864;12.766;2023-05-07T08:04:07;9.27;;;8.47;;
14241;SDS011;7205;50.864;12.766;2023-05-07T08:06:37;10.63;;;8.90;;
14241;SDS011;7205;50.864;12.766;2023-05-07T08:09:04;9.07;;;8.17;;
14241;SDS011;7205;50.864;12.766;2023-05-07T08:11:32;8.60;;;7.80;;
14241;SDS011;7205;50.864;12.766;2023-05-07T08:14:00;8.37;;;7.50;;
14241;SDS011;7205;50.864;12.766;2023-05-07T08:16:27;8.10;;;7.30;;
14241;SDS011;7205;50.864;12.766;2023-05-07T08:18:55;8.00;;;7.30;;
14241;SDS011;7205;50.864;12.766;2023-05-07T08:21:21;7.60;;;7.00;;
14241;SDS011;7205;50.864;12.766;2023-05-07T08:23:48;7.30;;;6.70;;
14241;SDS011;7205;50.864;12.766;2023-05-07T08:26:16;7.97;;;7.27;;
14241;SDS011;7205;50.864;12.766;2023-05-07T08:28:42;6.80;;;6.30;;
14241;SDS011;7205;50.864;12.766;2023-05-07T08:31:11;7.20;;;6.60;;
14241;SDS011;7205;50.864;12.766;2023-05-07T08:33:40;7.00;;;6.50;;
14241;SDS011;7205;50.864;12.766;2023-05-07T08:36:07;6.97;;;6.47;;
14241;SDS011;7205;50.864;12.766;2023-05-07T08:38:34;7.23;;;6.63;;
14241;SDS011;7205;50.864;12.766;2023-05-07T08:41:01;6.20;;;5.80;;
14241;SDS011;7205;50.864;12.766;2023-05-07T08:43:29;6.20;;;5.70;;
14241;SDS011;7205;50.864;12.766;2023-05-07T08:46:00;4.97;;;4.67;;
14241;SDS011;7205;50.864;12.766;2023-05-07T08:48:32;5.20;;;4.80;;
14241;SDS011;7205;50.864;12.766;2023-05-07T08:51:15;4.83;;;4.53;;
14241;SDS011;7205;50.864;12.766;2023-05-07T08:53:44;5.60;;;5.20;;
14241;SDS011;7205;50.864;12.766;2023-05-07T08:56:16;5.50;;;5.10;;
14241;SDS011;7205;50.864;12.766;2023-05-07T08:58:45;5.03;;;4.73;;
14241;SDS011;7205;50.864;12.766;2023-05-07T09:01:13;5.20;;;4.90;;
14241;SDS011;7205;50.864;12.766;2023-05-07T09:03:47;4.90;;;4.60;;
14241;SDS011;7205;50.864;12.766;2023-05-07T09:06:19;5.10;;;4.50;;
14241;SDS011;7205;50.864;12.766;2023-05-07T09:08:48;4.90;;;4.50;;
14241;SDS011;7205;50.864;12.766;2023-05-07T09:11:19;5.27;;;4.87;;
14241;SDS011;7205;50.864;12.766;2023-05-07T09:13:47;5.33;;;5.03;;
14241;SDS011;7205;50.864;12.766;2023-05-07T09:16:15;5.03;;;4.73;;
14241;SDS011;7205;50.864;12.766;2023-05-07T09:18:46;5.90;;;5.50;;
14241;SDS011;7205;50.864;12.766;2023-05-07T09:21:14;6.00;;;5.50;;
14241;SDS011;7205;50.864;12.766;2023-05-07T09:23:42;5.80;;;5.40;;
14241;SDS011;7205;50.864;12.766;2023-05-07T09:26:09;5.40;;;5.10;;
14241;SDS011;7205;50.864;12.766;2023-05-07T09:28:40;5.87;;;5.47;;
14241;SDS011;7205;50.864;12.766;2023-05-07T09:31:09;5.53;;;5.20;;
14241;SDS011;7205;50.864;12.766;2023-05-07T09:33:37;6.00;;;5.53;;
14241;SDS011;7205;50.864;12.766;2023-05-07T09:36:07;6.10;;;5.70;;
14241;SDS011;7205;50.864;12.766;2023-05-07T09:38:37;7.57;;;6.83;;
14241;SDS011;7205;50.864;12.766;2023-05-07T09:41:05;6.60;;;6.10;;
14241;SDS011;7205;50.864;12.766;2023-05-07T09:43:39;6.23;;;5.73;;
14241;SDS011;7205;50.864;12.766;2023-05-07T09:46:11;5.53;;;5.07;;
14241;SDS011;7205;50.864;12.766;2023-05-07T09:48:42;5.43;;;5.13;;
14241;SDS011;7205;50.864;12.766;2023-05-07T09:51:15;6.13;;;5.63;;
14241;SDS011;7205;50.864;12.766;2023-05-07T09:53:45;5.73;;;5.33;;
14241;SDS011;7205;50.864;12.766;2023-05-07T09:56:25;5.00;;;4.70;;
14241;SDS011;7205;50.864;12.766;2023-05-07T09:58:54;5.17;;;4.50;;
14241;SDS011;7205;50.864;12.766;2023-05-07T10:01:22;4.50;;;4.20;;
14241;SDS011;7205;50.864;12.766;2023-05-07T10:03:51;4.50;;;4.20;;
14241;SDS011;7205;50.864;12.766;2023-05-07T10:06:20;4.30;;;4.00;;
14241;SDS011;7205;50.864;12.766;2023-05-07T10:08:49;4.80;;;4.50;;
14241;SDS011;7205;50.864;12.766;2023-05-07T10:11:17;4.10;;;3.90;;
14241;SDS011;7205;50.864;12.766;2023-05-07T10:13:44;4.33;;;4.07;;
14241;SDS011;7205;50.864;12.766;2023-05-07T10:16:14;3.93;;;3.73;;
14241;SDS011;7205;50.864;12.766;2023-05-07T10:18:45;3.87;;;3.67;;
14241;SDS011;7205;50.864;12.766;2023-05-07T10:21:21;4.27;;;3.97;;
14241;SDS011;7205;50.864;12.766;2023-05-07T10:23:56;3.73;;;3.53;;
14241;SDS011;7205;50.864;12.766;2023-05-07T10:26:28;3.07;;;2.97;;
14241;SDS011;7205;50.864;12.766;2023-05-07T10:28:58;3.60;;;3.40;;
14241;SDS011;7205;50.864;12.766;2023-05-07T10:31:35;4.27;;;3.97;;
14241;SDS011;7205;50.864;12.766;2023-05-07T10:34:16;3.50;;;3.20;;
14241;SDS011;7205;50.864;12.766;2023-05-07T10:36:49;3.20;;;3.00;;
14241;SDS011;7205;50.864;12.766;2023-05-07T10:39:18;3.40;;;3.20;;
14241;SDS011;7205;50.864;12.766;2023-05-07T10:41:47;3.50;;;3.27;;
14241;SDS011;7205;50.864;12.766;2023-05-07T10:44:24;3.37;;;3.07;;
14241;SDS011;7205;50.864;12.766;2023-05-07T10:47:05;3.20;;;3.00;;
14241;SDS011;7205;50.864;12.766;2023-05-07T10:49:36;3.40;;;3.20;;
14241;SDS011;7205;50.864;12.766;2023-05-07T10:52:16;3.10;;;3.00;;
14241;SDS011;7205;50.864;12.766;2023-05-07T10:55:18;3.30;;;3.10;;
14241;SDS011;7205;50.864;12.766;2023-05-07T10:58:25;3.70;;;3.40;;
14241;SDS011;7205;50.864;12.766;2023-05-07T11:01:14;3.50;;;3.30;;
14241;SDS011;7205;50.864;12.766;2023-05-07T11:04:14;3.33;;;3.13;;
14241;SDS011;7205;50.864;12.766;2023-05-07T11:10:03;3.60;;;3.40;;
14241;SDS011;7205;50.864;12.766;2023-05-07T11:12:54;3.90;;;3.70;;
14241;SDS011;7205;50.864;12.766;2023-05-07T11:15:34;4.60;;;4.30;;
14241;SDS011;7205;50.864;12.766;2023-05-07T11:18:09;4.10;;;3.90;;
14241;SDS011;7205;50.864;12.766;2023-05-07T11:23:58;4.63;;;4.33;;
14241;SDS011;7205;50.864;12.766;2023-05-07T11:26:45;4.23;;;3.93;;
14241;SDS011;7205;50.864;12.766;2023-05-07T11:29:18;4.90;;;4.50;;
14241;SDS011;7205;50.864;12.766;2023-05-07T11:31:49;4.73;;;4.33;;
14241;SDS011;7205;50.864;12.766;2023-05-07T11:34:21;4.70;;;4.40;;
14241;SDS011;7205;50.864;12.766;2023-05-07T11:36:49;3.90;;;3.60;;
14241;SDS011;7205;50.864;12.766;2023-05-07T11:39:26;4.30;;;4.10;;
14241;SDS011;7205;50.864;12.766;2023-05-07T11:41:55;3.50;;;3.30;;
14241;SDS011;7205;50.864;12.766;2023-05-07T11:44:22;3.63;;;3.43;;
14241;SDS011;7205;50.864;12.766;2023-05-07T11:46:48;3.90;;;3.70;;
14241;SDS011;7205;50.864;12.766;2023-05-07T11:49:16;3.83;;;3.63;;
14241;SDS011;7205;50.864;12.766;2023-05-07T11:51:43;4.77;;;4.40;;
14241;SDS011;7205;50.864;12.766;2023-05-07T11:54:11;3.90;;;3.70;;
14241;SDS011;7205;50.864;12.766;2023-05-07T11:56:42;4.53;;;4.13;;
14241;SDS011;7205;50.864;12.766;2023-05-07T11:59:12;3.73;;;3.53;;
14241;SDS011;7205;50.864;12.766;2023-05-07T12:01:44;3.80;;;3.60;;
14241;SDS011;7205;50.864;12.766;2023-05-07T12:04:12;3.60;;;3.40;;
14241;SDS011;7205;50.864;12.766;2023-05-07T12:06:40;3.70;;;3.40;;
14241;SDS011;7205;50.864;12.766;2023-05-07T12:09:06;4.10;;;3.83;;
14241;SDS011;7205;50.864;12.766;2023-05-07T12:11:36;3.50;;;3.30;;
14241;SDS011;7205;50.864;12.766;2023-05-07T12:14:05;3.70;;;3.40;;
14241;SDS011;7205;50.864;12.766;2023-05-07T12:16:33;3.70;;;3.50;;
14241;SDS011;7205;50.864;12.766;2023-05-07T12:19:00;3.67;;;3.47;;
14241;SDS011;7205;50.864;12.766;2023-05-07T12:21:27;4.07;;;3.60;;
14241;SDS011;7205;50.864;12.766;2023-05-07T12:23:54;3.70;;;3.50;;
14241;SDS011;7205;50.864;12.766;2023-05-07T12:26:20;3.70;;;3.50;;
14241;SDS011;7205;50.864;12.766;2023-05-07T12:28:49;3.27;;;3.17;;
14241;SDS011;7205;50.864;12.766;2023-05-07T12:31:16;3.73;;;3.53;;
14241;SDS011;7205;50.864;12.766;2023-05-07T12:33:45;3.40;;;3.30;;
14241;SDS011;7205;50.864;12.766;2023-05-07T12:36:12;3.33;;;3.20;;
14241;SDS011;7205;50.864;12.766;2023-05-07T12:38:39;3.70;;;3.50;;
14241;SDS011;7205;50.864;12.766;2023-05-07T12:41:07;3.20;;;3.10;;
14241;SDS011;7205;50.864;12.766;2023-05-07T12:43:35;3.70;;;3.50;;
14241;SDS011;7205;50.864;12.766;2023-05-07T12:46:03;3.60;;;3.40;;
14241;SDS011;7205;50.864;12.766;2023-05-07T12:48:30;3.70;;;3.50;;
14241;SDS011;7205;50.864;12.766;2023-05-07T12:51:00;3.97;;;3.67;;
14241;SDS011;7205;50.864;12.766;2023-05-07T12:53:27;3.80;;;3.60;;
14241;SDS011;7205;50.864;12.766;2023-05-07T12:55:56;3.53;;;3.30;;
14241;SDS011;7205;50.864;12.766;2023-05-07T12:58:25;3.40;;;3.20;;
14241;SDS011;7205;50.864;12.766;2023-05-07T13:00:53;3.50;;;3.30;;
14241;SDS011;7205;50.864;12.766;2023-05-07T13:03:24;3.23;;;3.03;;
14241;SDS011;7205;50.864;12.766;2023-05-07T13:05:53;3.70;;;3.50;;
14241;SDS011;7205;50.864;12.766;2023-05-07T13:08:30;3.90;;;3.70;;
14241;SDS011;7205;50.864;12.766;2023-05-07T13:10:57;4.07;;;3.77;;
14241;SDS011;7205;50.864;12.766;2023-05-07T13:13:28;4.23;;;3.97;;
14241;SDS011;7205;50.864;12.766;2023-05-07T13:15:55;3.97;;;3.77;;
14241;SDS011;7205;50.864;12.766;2023-05-07T13:18:21;3.83;;;3.63;;
14241;SDS011;7205;50.864;12.766;2023-05-07T13:20:48;4.23;;;3.93;;
14241;SDS011;7205;50.864;12.766;2023-05-07T13:23:15;3.70;;;3.50;;
14241;SDS011;7205;50.864;12.766;2023-05-07T13:25:43;4.00;;;3.80;;
14241;SDS011;7205;50.864;12.766;2023-05-07T13:28:10;3.90;;;3.70;;
14241;SDS011;7205;50.864;12.766;2023-05-07T13:30:37;3.63;;;3.43;;
14241;SDS011;7205;50.864;12.766;2023-05-07T13:33:03;3.97;;;3.77;;
14241;SDS011;7205;50.864;12.766;2023-05-07T13:35:30;4.20;;;3.90;;
14241;SDS011;7205;50.864;12.766;2023-05-07T13:37:57;3.57;;;3.37;;
14241;SDS011;7205;50.864;12.766;2023-05-07T13:40:24;3.70;;;3.50;;
14241;SDS011;7205;50.864;12.766;2023-05-07T13:42:52;3.83;;;3.63;;
14241;SDS011;7205;50.864;12.766;2023-05-07T13:45:19;3.50;;;3.30;;
14241;SDS011;7205;50.864;12.766;2023-05-07T13:47:46;3.90;;;3.60;;
14241;SDS011;7205;50.864;12.766;2023-05-07T13:50:14;3.70;;;3.50;;
14241;SDS011;7205;50.864;12.766;2023-05-07T13:52:42;3.70;;;3.50;;
14241;SDS011;7205;50.864;12.766;2023-05-07T13:55:15;3.67;;;3.47;;
14241;SDS011;7205;50.864;12.766;2023-05-07T13:57:42;3.63;;;3.43;;
14241;SDS011;7205;50.864;12.766;2023-05-07T14:00:11;3.57;;;3.37;;
14241;SDS011;7205;50.864;12.766;2023-05-07T14:02:41;3.60;;;3.40;;
14241;SDS011;7205;50.864;12.766;2023-05-07T14:05:08;3.70;;;3.50;;
14241;SDS011;7205;50.864;12.766;2023-05-07T14:07:35;3.30;;;3.10;;
14241;SDS011;7205;50.864;12.766;2023-05-07T14:10:02;3.20;;;3.00;;
14241;SDS011;7205;50.864;12.766;2023-05-07T14:12:30;3.70;;;3.50;;
14241;SDS011;7205;50.864;12.766;2023-05-07T14:14:57;3.60;;;3.40;;
14241;SDS011;7205;50.864;12.766;2023-05-07T14:17:25;3.30;;;3.10;;
14241;SDS011;7205;50.864;12.766;2023-05-07T14:19:52;3.63;;;3.40;;
14241;SDS011;7205;50.864;12.766;2023-05-07T14:22:20;3.30;;;3.10;;
14241;SDS011;7205;50.864;12.766;2023-05-07T14:24:47;3.53;;;3.33;;
14241;SDS011;7205;50.864;12.766;2023-05-07T14:27:14;3.73;;;3.43;;
14241;SDS011;7205;50.864;12.766;2023-05-07T14:29:41;3.77;;;3.57;;
14241;SDS011;7205;50.864;12.766;2023-05-07T14:32:08;3.40;;;3.20;;
14241;SDS011;7205;50.864;12.766;2023-05-07T14:34:36;3.30;;;3.20;;
14241;SDS011;7205;50.864;12.766;2023-05-07T14:37:03;3.80;;;3.50;;
14241;SDS011;7205;50.864;12.766;2023-05-07T14:39:30;3.50;;;3.30;;
14241;SDS011;7205;50.864;12.766;2023-05-07T14:41:57;3.87;;;3.67;;
14241;SDS011;7205;50.864;12.766;2023-05-07T14:44:23;3.30;;;3.20;;
14241;SDS011;7205;50.864;12.766;2023-05-07T14:46:51;3.37;;;3.17;;
14241;SDS011;7205;50.864;12.766;2023-05-07T14:49:18;3.57;;;3.37;;
14241;SDS011;7205;50.864;12.766;2023-05-07T14:51:46;3.80;;;3.60;;
14241;SDS011;7205;50.864;12.766;2023-05-07T14:54:13;3.30;;;3.20;;